createdAt,value
2018-08-31T00:02:20.931Z,18.10
2018-08-31T00:05:06.415Z,16.67
2018-08-31T00:07:53.782Z,15.97
2018-08-31T00:12:37.990Z,16.03
2018-08-31T00:15:07.056Z,15.20
2018-08-31T00:17:36.870Z,16.10
2018-08-31T00:20:05.715Z,15.67
2018-08-31T00:22:34.433Z,15.70
2018-08-31T00:26:23.618Z,15.73
2018-08-31T00:29:48.238Z,15.67
2018-08-31T00:34:05.496Z,16.33
2018-08-31T00:39:53.483Z,16.43
2018-08-31T00:42:49.210Z,15.50
2018-08-31T00:45:33.696Z,16.23
2018-08-31T00:48:02.868Z,17.10
2018-08-31T00:50:31.975Z,16.90
2018-08-31T00:53:01.070Z,16.90
2018-08-31T00:55:29.847Z,17.23
2018-08-31T00:57:58.506Z,16.33
2018-08-31T01:00:27.209Z,16.07
2018-08-31T01:02:55.927Z,16.53
2018-08-31T01:05:24.665Z,15.87
2018-08-31T01:07:53.547Z,15.70
2018-08-31T01:10:23.398Z,16.40
2018-08-31T01:12:53.266Z,16.67
2018-08-31T01:15:21.853Z,16.37
2018-08-31T01:17:50.473Z,15.63
2018-08-31T01:20:19.236Z,15.83
2018-08-31T01:22:47.958Z,16.73
2018-08-31T01:25:16.615Z,15.53
2018-08-31T01:27:45.288Z,14.67
2018-08-31T01:30:13.884Z,13.97
2018-08-31T01:32:42.533Z,14.33
2018-08-31T01:35:11.205Z,15.20
2018-08-31T01:37:39.810Z,15.90
2018-08-31T01:40:08.541Z,16.10
2018-08-31T01:42:37.244Z,15.40
2018-08-31T01:45:06.086Z,15.43
2018-08-31T01:47:34.805Z,15.87
2018-08-31T01:50:03.578Z,15.27
2018-08-31T01:52:32.421Z,16.00
2018-08-31T01:55:01.161Z,18.10
2018-08-31T01:57:29.928Z,18.83
2018-08-31T01:59:58.713Z,18.07
2018-08-31T02:02:27.440Z,17.60
2018-08-31T02:04:56.228Z,17.03
2018-08-31T02:07:24.958Z,17.63
2018-08-31T02:09:53.758Z,18.20
2018-08-31T02:12:22.465Z,18.27
2018-08-31T02:14:51.408Z,24.40
2018-08-31T02:17:20.138Z,27.80
2018-08-31T02:19:48.938Z,29.03
2018-08-31T02:22:17.608Z,23.90
2018-08-31T02:24:46.238Z,21.27
2018-08-31T02:27:14.858Z,17.47
2018-08-31T02:29:43.528Z,26.83
2018-08-31T02:32:12.197Z,30.83
2018-08-31T02:34:40.796Z,29.17
2018-08-31T02:37:09.477Z,25.63
2018-08-31T02:39:38.171Z,25.37
2018-08-31T02:42:06.931Z,24.23
2018-08-31T02:44:35.659Z,19.43
2018-08-31T02:47:04.461Z,25.40
2018-08-31T02:49:33.206Z,23.37
2018-08-31T02:52:01.921Z,22.03
2018-08-31T02:54:30.677Z,19.40
2018-08-31T02:56:59.406Z,15.90
2018-08-31T02:59:28.069Z,15.40
2018-08-31T03:01:56.661Z,15.13
2018-08-31T03:04:25.384Z,15.30
2018-08-31T03:06:54.013Z,19.20
2018-08-31T03:09:22.658Z,23.10
2018-08-31T03:11:51.321Z,22.10
2018-08-31T03:14:19.933Z,18.13
2018-08-31T03:16:48.522Z,21.93
2018-08-31T03:19:17.153Z,25.40
2018-08-31T03:21:45.857Z,25.77
2018-08-31T03:24:14.614Z,24.70
2018-08-31T03:26:43.311Z,26.73
2018-08-31T03:29:12.071Z,27.27
2018-08-31T03:31:40.783Z,26.43
2018-08-31T03:34:09.543Z,24.40
2018-08-31T03:36:38.279Z,28.90
2018-08-31T03:39:09.336Z,23.77
2018-08-31T03:41:38.433Z,27.40
2018-08-31T03:44:07.133Z,27.40
2018-08-31T03:46:35.822Z,32.97
2018-08-31T03:49:04.573Z,32.03
2018-08-31T03:51:33.320Z,32.50
2018-08-31T03:54:02.155Z,34.13
2018-08-31T03:56:30.946Z,35.17
2018-08-31T03:58:59.725Z,34.07
2018-08-31T04:01:28.358Z,33.43
2018-08-31T04:03:56.985Z,32.60
2018-08-31T04:06:25.790Z,33.67
2018-08-31T04:08:54.380Z,31.40
2018-08-31T04:11:23.048Z,30.30
2018-08-31T04:13:51.801Z,30.87
2018-08-31T04:16:20.496Z,30.60
2018-08-31T04:18:49.222Z,28.53
2018-08-31T04:21:17.949Z,28.40
2018-08-31T04:23:46.635Z,27.97
2018-08-31T04:26:15.250Z,28.57
2018-08-31T04:28:43.880Z,27.13
2018-08-31T04:31:12.501Z,26.17
2018-08-31T04:33:41.178Z,27.27
2018-08-31T04:36:09.829Z,27.73
2018-08-31T04:38:38.529Z,27.00
2018-08-31T04:41:07.203Z,27.47
2018-08-31T04:43:35.969Z,26.90
2018-08-31T04:46:04.710Z,26.57
2018-08-31T04:48:33.478Z,28.13
2018-08-31T04:51:02.218Z,27.63
2018-08-31T04:53:31.800Z,25.60
2018-08-31T04:56:00.579Z,27.00
2018-08-31T04:58:29.196Z,24.83
2018-08-31T05:00:57.838Z,27.97
2018-08-31T05:03:26.569Z,26.70
2018-08-31T05:05:55.201Z,28.93
2018-08-31T05:08:23.831Z,27.93
2018-08-31T05:10:52.553Z,29.93
2018-08-31T05:13:21.348Z,27.87
2018-08-31T05:15:50.107Z,27.93
2018-08-31T05:18:18.896Z,27.97
2018-08-31T05:20:47.618Z,27.23
2018-08-31T05:23:16.378Z,26.07
2018-08-31T05:25:45.136Z,25.30
2018-08-31T05:28:13.962Z,25.13
2018-08-31T05:30:42.714Z,23.03
2018-08-31T05:33:12.126Z,22.03
2018-08-31T05:35:40.816Z,20.50
2018-08-31T05:38:09.416Z,22.87
2018-08-31T05:40:38.112Z,22.97
2018-08-31T05:43:06.828Z,23.17
2018-08-31T05:45:35.905Z,22.27
2018-08-31T05:48:04.652Z,23.27
2018-08-31T05:50:33.486Z,23.60
2018-08-31T05:53:02.250Z,23.20
2018-08-31T05:55:30.923Z,21.87
2018-08-31T05:57:59.576Z,22.07
2018-08-31T06:00:28.458Z,21.20
2018-08-31T06:02:57.109Z,20.67
2018-08-31T06:05:26.200Z,20.47
2018-08-31T06:07:55.014Z,19.20
2018-08-31T06:10:23.761Z,18.37
2018-08-31T06:12:52.521Z,18.90
2018-08-31T06:15:21.294Z,19.27
2018-08-31T06:17:50.036Z,16.60
2018-08-31T06:20:18.779Z,17.03
2018-08-31T06:22:47.553Z,17.23
2018-08-31T06:25:16.364Z,15.50
2018-08-31T06:27:45.251Z,15.47
2018-08-31T06:30:14.659Z,15.60
2018-08-31T06:32:43.340Z,16.23
2018-08-31T06:35:12.083Z,14.50
2018-08-31T06:37:40.936Z,13.90
2018-08-31T06:40:09.675Z,14.47
2018-08-31T06:42:38.467Z,13.97
2018-08-31T06:45:07.306Z,13.20
2018-08-31T06:47:36.042Z,13.00
2018-08-31T06:50:05.161Z,12.30
2018-08-31T06:52:33.979Z,12.17
2018-08-31T06:55:02.693Z,12.73
2018-08-31T06:57:31.457Z,12.20
2018-08-31T07:00:00.251Z,11.97
2018-08-31T07:02:29.025Z,13.43
2018-08-31T07:04:57.790Z,13.67
2018-08-31T07:07:26.475Z,13.13
2018-08-31T07:09:55.169Z,13.57
2018-08-31T07:12:23.939Z,12.40
2018-08-31T07:14:52.543Z,12.80
2018-08-31T07:17:21.222Z,12.83
2018-08-31T07:19:50.139Z,12.93
2018-08-31T07:22:19.011Z,12.93
2018-08-31T07:24:47.865Z,12.30
2018-08-31T07:27:16.525Z,13.07
2018-08-31T07:29:45.169Z,12.60
2018-08-31T07:32:14.002Z,12.25
2018-08-31T07:34:42.608Z,12.33
2018-08-31T07:37:11.316Z,11.83
2018-08-31T07:39:40.068Z,11.85
2018-08-31T07:42:08.759Z,11.90
2018-08-31T07:44:37.389Z,11.33
2018-08-31T07:47:06.098Z,10.60
2018-08-31T07:49:34.706Z,11.05
2018-08-31T07:52:03.331Z,11.12
2018-08-31T07:54:32.011Z,11.00
2018-08-31T07:57:00.623Z,11.30
2018-08-31T07:59:29.276Z,11.00
2018-08-31T08:01:58.004Z,10.60
2018-08-31T08:04:26.854Z,10.65
2018-08-31T08:06:55.539Z,10.03
2018-08-31T08:09:24.259Z,10.65
2018-08-31T08:11:53.005Z,10.20
2018-08-31T08:14:21.856Z,10.30
2018-08-31T08:16:50.664Z,9.78
2018-08-31T08:19:19.528Z,9.50
2018-08-31T08:21:48.373Z,9.10
2018-08-31T08:24:17.134Z,10.15
2018-08-31T08:26:45.784Z,10.25
2018-08-31T08:29:14.441Z,9.58
2018-08-31T08:31:43.056Z,9.33
2018-08-31T08:34:11.699Z,9.30
2018-08-31T08:36:40.495Z,8.88
2018-08-31T08:39:09.241Z,8.63
2018-08-31T08:41:38.009Z,8.50
2018-08-31T08:44:07.330Z,8.45
2018-08-31T08:46:35.962Z,8.73
2018-08-31T08:49:04.796Z,8.60
2018-08-31T08:51:34.335Z,9.15
2018-08-31T08:54:03.086Z,7.75
2018-08-31T08:56:32.876Z,7.75
2018-08-31T08:59:01.690Z,8.03
2018-08-31T09:01:30.419Z,7.80
2018-08-31T09:03:59.175Z,7.53
2018-08-31T09:06:27.873Z,7.35
2018-08-31T09:08:56.660Z,7.40
2018-08-31T09:11:25.373Z,8.73
2018-08-31T09:13:54.806Z,7.60
2018-08-31T09:16:23.626Z,7.15
2018-08-31T09:18:52.341Z,7.58
2018-08-31T09:21:21.104Z,8.15
2018-08-31T09:23:49.814Z,7.70
2018-08-31T09:26:18.679Z,7.92
2018-08-31T09:28:47.484Z,6.80
2018-08-31T09:31:17.500Z,7.28
2018-08-31T09:33:46.273Z,7.10
2018-08-31T09:36:15.076Z,7.85
2018-08-31T09:38:43.922Z,6.97
2018-08-31T09:41:12.791Z,7.58
2018-08-31T09:43:42.070Z,7.15
2018-08-31T09:46:10.751Z,7.28
2018-08-31T09:48:39.386Z,7.55
2018-08-31T09:51:07.998Z,7.60
2018-08-31T09:53:36.705Z,7.35
2018-08-31T09:56:05.580Z,7.30
2018-08-31T09:58:34.668Z,7.65
2018-08-31T10:01:09.100Z,8.33
2018-08-31T10:03:41.944Z,8.23
2018-08-31T10:06:10.755Z,7.70
2018-08-31T10:08:39.673Z,7.97
2018-08-31T10:11:08.426Z,7.67
2018-08-31T10:13:37.224Z,7.00
2018-08-31T10:16:06.198Z,6.72
2018-08-31T10:18:35.029Z,6.95
2018-08-31T10:21:03.763Z,7.35
2018-08-31T10:23:32.513Z,7.03
2018-08-31T10:26:01.271Z,7.42
2018-08-31T10:28:30.108Z,6.80
2018-08-31T10:30:58.953Z,7.33
2018-08-31T10:33:27.801Z,7.50
2018-08-31T10:35:56.531Z,7.42
2018-08-31T10:38:25.316Z,7.15
2018-08-31T10:40:54.131Z,7.53
2018-08-31T10:43:23.569Z,7.70
2018-08-31T10:45:52.428Z,7.37
2018-08-31T10:48:22.434Z,7.33
2018-08-31T10:50:51.298Z,7.62
2018-08-31T10:53:20.296Z,7.37
2018-08-31T10:55:49.053Z,8.08
2018-08-31T10:58:17.844Z,7.35
2018-08-31T11:00:46.623Z,7.22
2018-08-31T11:03:15.496Z,7.67
2018-08-31T11:05:44.323Z,7.75
2018-08-31T11:08:13.196Z,8.63
2018-08-31T11:10:41.983Z,8.83
2018-08-31T11:13:10.842Z,9.70
2018-08-31T11:15:39.551Z,9.05
2018-08-31T11:18:08.323Z,9.13
2018-08-31T11:20:37.106Z,9.95
2018-08-31T11:23:06.498Z,10.08
2018-08-31T11:25:35.403Z,9.38
2018-08-31T11:28:04.178Z,8.60
2018-08-31T11:30:33.851Z,8.70
2018-08-31T11:33:02.663Z,8.78
2018-08-31T11:35:31.402Z,8.93
2018-08-31T11:38:01.037Z,7.92
2018-08-31T11:40:29.773Z,8.55
2018-08-31T11:42:58.496Z,7.85
2018-08-31T11:45:27.268Z,8.73
2018-08-31T11:47:56.924Z,8.13
2018-08-31T11:50:26.183Z,9.68
2018-08-31T11:52:55.096Z,9.08
2018-08-31T11:55:23.964Z,10.30
2018-08-31T11:57:53.366Z,9.53
2018-08-31T12:00:22.141Z,8.30
2018-08-31T12:02:50.783Z,9.78
2018-08-31T12:05:20.416Z,9.60
2018-08-31T12:07:49.144Z,9.85
2018-08-31T12:10:18.199Z,10.88
2018-08-31T12:12:47.036Z,10.82
2018-08-31T12:15:16.239Z,10.43
2018-08-31T12:17:45.059Z,10.80
2018-08-31T12:20:13.949Z,10.85
2018-08-31T12:22:42.856Z,10.80
2018-08-31T12:25:11.586Z,11.22
2018-08-31T12:27:43.874Z,11.15
2018-08-31T12:30:13.170Z,11.45
2018-08-31T12:32:42.174Z,10.58
2018-08-31T12:35:11.216Z,10.48
2018-08-31T12:37:40.197Z,11.38
2018-08-31T12:40:10.052Z,10.65
2018-08-31T12:42:38.891Z,10.72
2018-08-31T12:45:07.841Z,10.82
2018-08-31T12:47:36.671Z,10.38
2018-08-31T12:50:05.383Z,10.95
2018-08-31T12:52:34.096Z,10.82
2018-08-31T12:55:02.991Z,10.65
2018-08-31T12:57:31.656Z,10.43
2018-08-31T13:00:01.156Z,10.03
2018-08-31T13:02:31.283Z,10.15
2018-08-31T13:05:00.811Z,10.50
2018-08-31T13:07:29.567Z,10.45
2018-08-31T13:09:58.316Z,10.00
2018-08-31T13:12:27.432Z,10.10
2018-08-31T13:14:56.292Z,10.20
2018-08-31T13:17:25.219Z,9.23
2018-08-31T13:19:54.040Z,9.95
2018-08-31T13:22:22.687Z,9.50
2018-08-31T13:24:51.556Z,10.05
2018-08-31T13:27:20.862Z,9.85
2018-08-31T13:29:49.607Z,9.78
2018-08-31T13:32:18.379Z,9.73
2018-08-31T13:34:47.099Z,10.00
2018-08-31T13:37:15.919Z,9.60
2018-08-31T13:39:44.669Z,9.88
2018-08-31T13:42:13.509Z,9.20
2018-08-31T13:44:42.290Z,9.83
2018-08-31T13:47:11.124Z,9.78
2018-08-31T13:49:39.976Z,9.35
2018-08-31T13:52:08.761Z,9.13
2018-08-31T13:54:38.039Z,8.95
2018-08-31T13:57:07.017Z,10.20
2018-08-31T13:59:35.740Z,9.50
2018-08-31T14:02:04.805Z,9.70
2018-08-31T14:04:33.723Z,8.70
2018-08-31T14:07:02.405Z,9.75
2018-08-31T14:09:31.152Z,9.15
2018-08-31T14:12:01.564Z,9.73
2018-08-31T14:14:30.234Z,8.78
2018-08-31T14:16:58.931Z,8.73
2018-08-31T14:19:27.591Z,9.15
2018-08-31T14:21:56.318Z,9.30
2018-08-31T14:24:25.054Z,9.83
2018-08-31T14:26:53.785Z,8.93
2018-08-31T14:29:23.273Z,8.80
2018-08-31T14:31:52.367Z,8.68
2018-08-31T14:34:21.131Z,8.10
2018-08-31T14:36:50.061Z,8.90
2018-08-31T14:39:18.866Z,8.43
2018-08-31T14:41:47.501Z,8.70
2018-08-31T14:44:16.199Z,8.88
2018-08-31T14:46:44.913Z,8.90
2018-08-31T14:49:14.186Z,8.95
2018-08-31T14:51:43.049Z,8.40
2018-08-31T14:54:11.817Z,9.23
2018-08-31T14:56:40.637Z,9.00
2018-08-31T14:59:09.384Z,9.38
2018-08-31T15:01:38.225Z,8.85
2018-08-31T15:04:09.783Z,9.93
2018-08-31T15:06:38.426Z,9.13
2018-08-31T15:09:09.058Z,9.38
2018-08-31T15:11:37.834Z,9.03
2018-08-31T15:14:06.591Z,9.88
2018-08-31T15:16:35.370Z,9.65
2018-08-31T15:19:04.311Z,9.18
2018-08-31T15:21:33.116Z,9.73
2018-08-31T15:24:01.854Z,8.58
2018-08-31T15:26:30.479Z,8.95
2018-08-31T15:28:59.278Z,9.30
2018-08-31T15:31:28.130Z,8.60
2018-08-31T15:33:56.765Z,9.08
2018-08-31T15:36:25.406Z,8.30
2018-08-31T15:38:54.166Z,8.70
2018-08-31T15:41:22.863Z,9.60
2018-08-31T15:43:51.708Z,9.13
2018-08-31T15:46:21.133Z,9.28
2018-08-31T15:48:50.036Z,9.38
2018-08-31T15:51:18.848Z,10.23
2018-08-31T15:53:47.596Z,10.20
2018-08-31T15:56:17.024Z,9.95
2018-08-31T15:58:45.871Z,9.88
2018-08-31T16:01:14.658Z,10.23
2018-08-31T16:03:43.386Z,9.95
2018-08-31T16:06:12.157Z,9.50
2018-08-31T16:08:40.879Z,8.95
2018-08-31T16:11:09.549Z,9.33
2018-08-31T16:13:38.361Z,9.68
2018-08-31T16:16:07.366Z,10.20
2018-08-31T16:18:36.300Z,9.88
2018-08-31T16:21:05.112Z,9.28
2018-08-31T16:23:33.963Z,9.93
2018-08-31T16:26:02.756Z,10.05
2018-08-31T16:28:31.506Z,9.40
2018-08-31T16:31:00.352Z,8.90
2018-08-31T16:33:29.088Z,9.55
2018-08-31T16:35:57.771Z,8.88
2018-08-31T16:38:26.441Z,10.48
2018-08-31T16:40:55.126Z,10.18
2018-08-31T16:43:23.911Z,10.15
2018-08-31T16:45:52.821Z,10.00
2018-08-31T16:48:21.567Z,10.48
2018-08-31T16:50:50.891Z,10.85
2018-08-31T16:53:19.641Z,10.08
2018-08-31T16:55:48.411Z,9.68
2018-08-31T16:58:17.269Z,10.72
2018-08-31T17:00:46.486Z,9.55
2018-08-31T17:03:15.287Z,9.85
2018-08-31T17:05:44.076Z,10.78
2018-08-31T17:08:12.754Z,11.08
2018-08-31T17:10:41.419Z,11.45
2018-08-31T17:13:10.168Z,10.45
2018-08-31T17:15:39.091Z,11.00
2018-08-31T17:18:07.863Z,10.03
2018-08-31T17:20:36.639Z,9.23
2018-08-31T17:23:05.463Z,10.68
2018-08-31T17:25:34.286Z,10.72
2018-08-31T17:28:08.732Z,11.25
2018-08-31T17:30:37.614Z,11.83
2018-08-31T17:33:12.133Z,11.57
2018-08-31T17:35:46.361Z,11.43
2018-08-31T17:38:15.077Z,10.63
2018-08-31T17:40:43.758Z,11.33
2018-08-31T17:43:12.554Z,11.12
2018-08-31T17:45:41.358Z,10.70
2018-08-31T17:48:10.111Z,10.38
2018-08-31T17:50:38.856Z,10.77
2018-08-31T17:53:07.571Z,11.00
2018-08-31T17:55:36.347Z,10.90
2018-08-31T17:58:05.961Z,11.03
2018-08-31T18:00:34.746Z,11.93
2018-08-31T18:03:03.548Z,10.57
2018-08-31T18:05:32.255Z,11.43
2018-08-31T18:08:00.998Z,11.10
2018-08-31T18:10:29.766Z,12.03
2018-08-31T18:12:58.481Z,11.43
2018-08-31T18:15:27.879Z,11.50
2018-08-31T18:17:56.788Z,11.33
2018-08-31T18:20:25.698Z,11.97
2018-08-31T18:22:54.563Z,11.30
2018-08-31T18:25:24.123Z,11.60
2018-08-31T18:27:52.943Z,11.93
2018-08-31T18:30:21.743Z,11.97
2018-08-31T18:32:51.263Z,10.97
2018-08-31T18:35:20.516Z,11.60
2018-08-31T18:37:49.331Z,11.27
2018-08-31T18:40:18.127Z,12.28
2018-08-31T18:42:47.095Z,12.30
2018-08-31T18:45:16.753Z,11.83
2018-08-31T18:47:45.446Z,11.93
2018-08-31T18:50:14.161Z,12.63
2018-08-31T18:52:42.972Z,12.07
2018-08-31T18:55:11.732Z,12.33
2018-08-31T18:57:40.402Z,12.20
2018-08-31T19:00:09.176Z,12.23
2018-08-31T19:02:37.863Z,11.97
2018-08-31T19:05:06.607Z,12.60
2018-08-31T19:07:35.385Z,12.33
2018-08-31T19:10:04.229Z,11.70
2018-08-31T19:12:33.729Z,11.00
2018-08-31T19:15:02.484Z,12.30
2018-08-31T19:17:31.724Z,13.37
2018-08-31T19:20:01.515Z,11.60
2018-08-31T19:22:30.461Z,11.90
2018-08-31T19:24:59.201Z,12.70
2018-08-31T19:27:27.896Z,12.50
2018-08-31T19:29:56.619Z,12.40
2018-08-31T19:32:25.478Z,12.13
2018-08-31T19:34:55.632Z,11.80
2018-08-31T19:37:24.444Z,12.03
2018-08-31T19:39:53.423Z,12.37
2018-08-31T19:42:22.086Z,12.00
2018-08-31T19:44:51.998Z,12.50
2018-08-31T19:47:20.723Z,11.47
2018-08-31T19:49:49.960Z,11.07
2018-08-31T19:52:18.632Z,11.27
2018-08-31T19:54:48.801Z,12.40
2018-08-31T19:57:17.561Z,11.50
2018-08-31T19:59:46.244Z,12.37
2018-08-31T20:02:15.529Z,12.13
2018-08-31T20:04:44.301Z,12.03
2018-08-31T20:07:13.529Z,12.53
2018-08-31T20:09:42.346Z,11.83
2018-08-31T20:12:11.720Z,11.90
2018-08-31T20:14:41.134Z,11.40
2018-08-31T20:17:10.251Z,12.27
2018-08-31T20:19:39.097Z,11.70
2018-08-31T20:22:11.064Z,12.47
2018-08-31T20:24:40.050Z,11.00
2018-08-31T20:27:09.347Z,11.00
2018-08-31T20:29:38.152Z,11.33
2018-08-31T20:32:08.411Z,10.70
2018-08-31T20:34:37.292Z,12.00
2018-08-31T20:37:06.252Z,11.53
2018-08-31T20:39:35.084Z,11.70
2018-08-31T20:42:03.980Z,10.97
2018-08-31T20:44:32.966Z,11.83
2018-08-31T20:47:02.346Z,12.30
2018-08-31T20:49:31.514Z,11.63
2018-08-31T20:52:00.407Z,11.93
2018-08-31T20:54:29.068Z,11.43
2018-08-31T20:56:57.871Z,11.87
2018-08-31T20:59:27.684Z,11.80
2018-08-31T21:01:58.534Z,11.27
2018-08-31T21:04:28.039Z,11.70
2018-08-31T21:06:56.892Z,11.47
2018-08-31T21:09:25.572Z,11.23
2018-08-31T21:11:54.264Z,11.53
2018-08-31T21:14:23.183Z,11.07
2018-08-31T21:16:51.906Z,10.90
2018-08-31T21:19:20.649Z,11.03
2018-08-31T21:21:49.487Z,11.23
2018-08-31T21:24:18.847Z,11.67
2018-08-31T21:26:48.020Z,10.93
2018-08-31T21:29:16.679Z,11.30
2018-08-31T21:31:45.404Z,11.07
2018-08-31T21:34:14.191Z,11.73
2018-08-31T21:36:42.888Z,11.30
2018-08-31T21:39:11.679Z,11.50
2018-08-31T21:41:40.450Z,11.63
2018-08-31T21:44:09.306Z,12.40
2018-08-31T21:46:38.079Z,12.27
2018-08-31T21:49:06.780Z,11.27
2018-08-31T21:51:35.811Z,11.10
2018-08-31T21:54:04.503Z,11.73
2018-08-31T21:56:33.271Z,11.63
2018-08-31T21:59:02.033Z,11.67
2018-08-31T22:01:36.266Z,10.90
2018-08-31T22:04:05.312Z,11.53
2018-08-31T22:06:35.273Z,11.37
2018-08-31T22:09:05.856Z,11.87
2018-08-31T22:11:34.689Z,11.17
2018-08-31T22:14:03.487Z,12.30
2018-08-31T22:16:32.366Z,11.47
2018-08-31T22:19:01.163Z,10.73
2018-08-31T22:21:29.966Z,10.97
2018-08-31T22:23:58.728Z,10.97
2018-08-31T22:26:27.460Z,11.53
2018-08-31T22:28:56.279Z,10.83
2018-08-31T22:31:24.956Z,11.10
2018-08-31T22:33:53.661Z,10.90
2018-08-31T22:36:22.295Z,10.90
2018-08-31T22:38:51.040Z,10.07
2018-08-31T22:41:19.745Z,10.53
2018-08-31T22:43:49.790Z,10.60
2018-08-31T22:46:20.523Z,9.83
2018-08-31T22:48:50.158Z,10.47
2018-08-31T22:51:19.675Z,10.73
2018-08-31T22:53:48.723Z,10.73
2018-08-31T22:56:17.516Z,10.67
2018-08-31T22:58:46.184Z,10.00
2018-08-31T23:01:15.103Z,10.40
2018-08-31T23:03:44.068Z,10.90
2018-08-31T23:06:12.935Z,10.80
2018-08-31T23:08:41.577Z,10.60
2018-08-31T23:11:11.407Z,11.43
2018-08-31T23:13:42.348Z,10.30
2018-08-31T23:16:11.106Z,10.30
2018-08-31T23:18:39.991Z,11.10
2018-08-31T23:21:09.303Z,10.80
2018-08-31T23:23:43.398Z,10.50
2018-08-31T23:26:12.044Z,10.47
2018-08-31T23:28:40.849Z,10.10
2018-08-31T23:31:09.579Z,10.33
2018-08-31T23:33:38.238Z,10.00
2018-08-31T23:36:06.898Z,10.30
2018-08-31T23:38:36.019Z,10.37
2018-08-31T23:41:04.836Z,11.13
2018-08-31T23:43:33.568Z,10.50
2018-08-31T23:46:03.207Z,10.83
2018-08-31T23:48:31.934Z,10.57
2018-08-31T23:51:00.696Z,10.60
2018-08-31T23:53:29.456Z,10.70
2018-08-31T23:55:59.041Z,11.43
2018-08-31T23:58:27.908Z,11.37
